Time;durP1;ratioP1;P1;durP2;ratioP2;P2;SDS_P1;SDS_P2;PMS_P1;PMS_P2;Temp;Humidity;BMP_temperature;BMP_pressure;BME280_temperature;BME280_humidity;BME280_pressure;Samples;Min_cycle;Max_cycle;Signal;HPM_P1;HPM_P2
2022/05/19 00:03:39;;;;;;;5.18;4.38;;;;;;;;;;10419549;28;20115;-77
2022/05/19 00:08:39;;;;;;;5.70;4.40;;;;;;;;;;10426610;28;20049;-78
2022/05/19 00:13:40;;;;;;;5.25;4.47;;;;;;;;;;10418038;28;20041;-79
2022/05/19 00:18:41;;;;;;;5.10;4.60;;;;;;;;;;10415490;28;20400;-79
2022/05/19 00:23:42;;;;;;;4.70;4.20;;;;;;;;;;10416602;28;20055;-79
2022/05/19 00:28:42;;;;;;;4.72;4.30;;;;;;;;;;10403955;28;20295;-77
2022/05/19 00:33:43;;;;;;;6.30;4.50;;;;;;;;;;10420440;28;20147;-78
2022/05/19 00:38:45;;;;;;;4.93;4.53;;;;;;;;;;10418141;28;20264;-78
2022/05/19 00:43:55;;;;;;;4.93;4.00;;;;;;;;;;10414540;28;20041;-78
2022/05/19 00:49:06;;;;;;;4.53;4.13;;;;;;;;;;10438183;28;20318;-78
2022/05/19 00:54:09;;;;;;;4.30;3.90;;;;;;;;;;10404707;28;20081;-77
2022/05/19 00:59:11;;;;;;;4.75;4.35;;;;;;;;;;10414437;28;20029;-76
2022/05/19 01:04:16;;;;;;;5.60;4.65;;;;;;;;;;10424267;28;20053;-75
2022/05/19 01:09:16;;;;;;;5.15;4.65;;;;;;;;;;10420769;28;20065;-76
2022/05/19 01:14:17;;;;;;;5.43;4.72;;;;;;;;;;10431337;28;20388;-77
2022/05/19 01:19:38;;;;;;;7.60;5.35;;;;;;;;;;10425922;28;20033;-77
2022/05/19 01:24:59;;;;;;;6.72;5.13;;;;;;;;;;10413504;28;20103;-77
2022/05/19 01:30:01;;;;;;;5.80;5.20;;;;;;;;;;10419327;28;20484;-78
2022/05/19 01:35:01;;;;;;;5.43;4.93;;;;;;;;;;10399464;28;20045;-76
2022/05/19 01:40:14;;;;;;;5.47;4.97;;;;;;;;;;10428519;28;20037;-78
2022/05/19 01:45:17;;;;;;;5.87;5.33;;;;;;;;;;10405381;28;20041;-77
2022/05/19 01:50:31;;;;;;;6.32;5.70;;;;;;;;;;10412395;28;20342;-77
2022/05/19 01:55:40;;;;;;;7.10;5.47;;;;;;;;;;10394349;28;20049;-78
2022/05/19 02:00:41;;;;;;;6.13;5.40;;;;;;;;;;10412612;28;20041;-77
2022/05/19 02:05:54;;;;;;;5.47;4.97;;;;;;;;;;10411056;28;20086;-78
2022/05/19 02:10:55;;;;;;;5.75;5.25;;;;;;;;;;10411476;28;20345;-78
2022/05/19 02:15:58;;;;;;;5.78;5.20;;;;;;;;;;10410776;28;20068;-77
2022/05/19 02:20:59;;;;;;;5.77;5.17;;;;;;;;;;10413016;28;20506;-78
2022/05/19 02:26:00;;;;;;;5.15;4.65;;;;;;;;;;10424973;28;20116;-77
2022/05/19 02:31:01;;;;;;;5.40;4.90;;;;;;;;;;10441604;28;20040;-78
2022/05/19 02:36:07;;;;;;;5.82;5.15;;;;;;;;;;10412578;28;20041;-78
2022/05/19 02:41:08;;;;;;;5.78;4.68;;;;;;;;;;10419578;28;20489;-76
2022/05/19 02:46:08;;;;;;;4.47;3.95;;;;;;;;;;10422746;28;20033;-77
2022/05/19 02:51:08;;;;;;;6.00;4.32;;;;;;;;;;10430655;28;20037;-78
2022/05/19 02:56:09;;;;;;;5.75;4.70;;;;;;;;;;10424999;28;20096;-78
2022/05/19 03:01:09;;;;;;;5.40;4.32;;;;;;;;;;10424325;28;20061;-77
2022/05/19 03:06:10;;;;;;;4.90;4.40;;;;;;;;;;10419502;28;20069;-76
2022/05/19 03:11:10;;;;;;;5.23;4.73;;;;;;;;;;10424922;28;20060;-77
2022/05/19 03:16:10;;;;;;;5.07;4.57;;;;;;;;;;10420723;28;20068;-79
2022/05/19 03:21:11;;;;;;;4.80;4.30;;;;;;;;;;10421575;28;20116;-77
2022/05/19 03:26:11;;;;;;;5.32;4.80;;;;;;;;;;10419906;28;20037;-78
2022/05/19 03:31:12;;;;;;;5.85;5.28;;;;;;;;;;10403118;28;20116;-77
2022/05/19 03:36:12;;;;;;;5.87;5.30;;;;;;;;;;10418608;28;20045;-76
2022/05/19 03:41:13;;;;;;;6.13;5.53;;;;;;;;;;10419039;28;20281;-76
2022/05/19 03:46:13;;;;;;;6.15;5.63;;;;;;;;;;10402017;28;20041;-77
2022/05/19 03:51:17;;;;;;;5.97;5.38;;;;;;;;;;10419309;28;20033;-76
2022/05/19 03:56:19;;;;;;;6.10;5.40;;;;;;;;;;10418549;28;20129;-76
2022/05/19 04:01:21;;;;;;;5.90;5.20;;;;;;;;;;10418329;28;20487;-77
2022/05/19 04:06:54;;;;;;;6.07;5.53;;;;;;;;;;10424607;28;20108;-77
2022/05/19 04:11:54;;;;;;;6.03;5.30;;;;;;;;;;10430731;28;20061;-77
2022/05/19 04:16:55;;;;;;;4.60;4.20;;;;;;;;;;10416889;28;20124;-77
2022/05/19 04:21:56;;;;;;;6.80;5.60;;;;;;;;;;10414853;28;20037;-77
2022/05/19 04:26:59;;;;;;;;;;;;;;;;;;10415945;28;20349;-77
2022/05/19 04:31:59;;;;;;;5.72;5.13;;;;;;;;;;10417894;28;19924;-77
2022/05/19 04:37:00;;;;;;;7.13;5.70;;;;;;;;;;10419023;28;20163;-77
2022/05/19 04:42:04;;;;;;;5.50;5.00;;;;;;;;;;10416265;28;20383;-77
2022/05/19 04:47:06;;;;;;;4.90;4.47;;;;;;;;;;10419448;28;20046;-76
2022/05/19 04:52:06;;;;;;;4.93;4.40;;;;;;;;;;10421630;28;20400;-78
2022/05/19 04:57:10;;;;;;;5.55;5.00;;;;;;;;;;10425354;28;20346;-77
2022/05/19 05:02:11;;;;;;;5.18;4.70;;;;;;;;;;10413016;28;20103;-75
2022/05/19 05:07:11;;;;;;;4.65;4.00;;;;;;;;;;10412825;28;20048;-76
2022/05/19 05:12:12;;;;;;;4.37;3.87;;;;;;;;;;10414047;28;20063;-76
2022/05/19 05:17:12;;;;;;;4.25;3.85;;;;;;;;;;10417473;28;20045;-75
2022/05/19 05:22:12;;;;;;;4.13;3.73;;;;;;;;;;10415328;28;20071;-76
2022/05/19 05:27:13;;;;;;;4.57;3.53;;;;;;;;;;10414722;28;20279;-76
2022/05/19 05:32:16;;;;;;;;;;;;;;;;;;10415714;28;20674;-77
2022/05/19 05:37:16;;;;;;;3.72;3.42;;;;;;;;;;10418865;28;19913;-76
2022/05/19 05:42:16;;;;;;;3.40;2.80;;;;;;;;;;10395507;28;20136;-75
2022/05/19 05:47:17;;;;;;;3.50;3.13;;;;;;;;;;10412131;28;20056;-73
2022/05/19 05:52:17;;;;;;;3.75;3.28;;;;;;;;;;10412727;28;20045;-73
2022/05/19 05:57:17;;;;;;;4.27;3.20;;;;;;;;;;10412394;28;20037;-74
2022/05/19 06:02:18;;;;;;;4.80;3.17;;;;;;;;;;10412638;28;20132;-74
2022/05/19 06:07:19;;;;;;;3.25;2.95;;;;;;;;;;10411046;28;20045;-73
2022/05/19 06:12:19;;;;;;;3.95;3.20;;;;;;;;;;10413549;28;20041;-75
2022/05/19 06:17:20;;;;;;;4.50;3.10;;;;;;;;;;10418974;28;20089;-74
2022/05/19 06:22:22;;;;;;;4.17;3.03;;;;;;;;;;10402934;28;20088;-75
2022/05/19 06:27:22;;;;;;;4.00;2.90;;;;;;;;;;10413606;28;20265;-75
2022/05/19 06:32:22;;;;;;;3.27;2.97;;;;;;;;;;10412590;28;20140;-77
2022/05/19 06:37:24;;;;;;;3.83;2.55;;;;;;;;;;10416098;28;20038;-78
2022/05/19 06:42:24;;;;;;;3.20;2.50;;;;;;;;;;10414575;28;20029;-77
2022/05/19 06:47:25;;;;;;;3.13;2.70;;;;;;;;;;10411484;28;20041;-70
2022/05/19 06:52:28;;;;;;;4.75;2.75;;;;;;;;;;10411182;28;20076;-70
2022/05/19 06:57:30;;;;;;;4.25;2.65;;;;;;;;;;10392937;28;20452;-71
2022/05/19 07:02:30;;;;;;;4.00;2.70;;;;;;;;;;10410821;28;20473;-70
2022/05/19 07:07:30;;;;;;;2.90;2.53;;;;;;;;;;10408711;28;20045;-71
2022/05/19 07:12:31;;;;;;;3.37;2.93;;;;;;;;;;10399159;28;20134;-71
2022/05/19 07:17:31;;;;;;;4.33;2.50;;;;;;;;;;10416405;28;20037;-71
2022/05/19 07:22:33;;;;;;;11.77;10.57;;;;;;;;;;10417340;28;20307;-76
2022/05/19 07:27:36;;;;;;;5.07;2.38;;;;;;;;;;10416476;28;20034;-76
2022/05/19 07:32:37;;;;;;;15.73;9.07;;;;;;;;;;10416419;28;20338;-79
2022/05/19 07:37:38;;;;;;;2.65;2.20;;;;;;;;;;10399817;28;20033;-77
2022/05/19 07:42:39;;;;;;;5.50;2.80;;;;;;;;;;10417858;28;20103;-74
2022/05/19 07:47:40;;;;;;;4.47;2.65;;;;;;;;;;10419669;28;20079;-73
2022/05/19 07:52:43;;;;;;;3.90;2.78;;;;;;;;;;10418306;28;20049;-78
2022/05/19 07:57:43;;;;;;;3.83;2.45;;;;;;;;;;10416710;28;20477;-76
2022/05/19 08:02:43;;;;;;;3.13;2.53;;;;;;;;;;10414316;28;20049;-76
2022/05/19 08:07:44;;;;;;;9.13;3.60;;;;;;;;;;10414723;28;20048;-76
2022/05/19 08:18:54;;;;;;;3.53;3.10;;;;;;;;;;10419644;28;20038;-77
2022/05/19 08:23:54;;;;;;;3.88;2.70;;;;;;;;;;10417863;28;20065;-77
2022/05/19 08:28:55;;;;;;;3.30;3.00;;;;;;;;;;10425002;28;20037;-76
2022/05/19 08:33:58;;;;;;;3.90;2.80;;;;;;;;;;10419687;28;20373;-76
2022/05/19 08:38:58;;;;;;;3.78;3.20;;;;;;;;;;10419714;28;20061;-75
2022/05/19 08:44:03;;;;;;;4.97;3.00;;;;;;;;;;10420507;28;20041;-75
2022/05/19 08:49:08;;;;;;;5.38;2.63;;;;;;;;;;10422591;28;20388;-75
2022/05/19 08:54:12;;;;;;;3.42;2.65;;;;;;;;;;10426242;28;20369;-77
2022/05/19 08:59:14;;;;;;;;;;;;;;;;;;10456115;28;20033;-81
2022/05/19 09:04:26;;;;;;;2.88;2.58;;;;;;;;;;10457934;28;19935;-80
2022/05/19 09:09:50;;;;;;;3.42;2.70;;;;;;;;;;10371969;28;20453;-79
2022/05/19 09:15:23;;;;;;;3.70;3.00;;;;;;;;;;10431595;28;20057;-79
2022/05/19 09:20:28;;;;;;;5.22;2.70;;;;;;;;;;10436902;28;20045;-81
2022/05/19 09:31:06;;;;;;;3.63;2.55;;;;;;;;;;10481533;28;20040;-80
2022/05/19 09:36:17;;;;;;;3.95;2.67;;;;;;;;;;10900665;22;20060;-80
2022/05/19 09:41:21;;;;;;;3.15;2.65;;;;;;;;;;10565104;28;20024;-79
2022/05/19 09:46:24;;;;;;;5.07;2.42;;;;;;;;;;10513984;28;20036;-79
2022/05/19 09:51:30;;;;;;;4.85;2.60;;;;;;;;;;10538992;28;20037;-81
2022/05/19 09:56:37;;;;;;;2.47;2.28;;;;;;;;;;10534676;28;20763;-80
2022/05/19 10:01:39;;;;;;;2.78;2.20;;;;;;;;;;10533466;28;20028;-80
2022/05/19 10:06:52;;;;;;;3.03;2.20;;;;;;;;;;10538696;28;20116;-79
2022/05/19 10:11:54;;;;;;;4.53;2.47;;;;;;;;;;10541338;28;20039;-81
2022/05/19 10:17:14;;;;;;;2.40;2.20;;;;;;;;;;10506226;28;20096;-81
2022/05/19 10:22:36;;;;;;;3.03;2.33;;;;;;;;;;10529307;28;20039;-81
2022/05/19 10:33:19;;;;;;;5.63;2.50;;;;;;;;;;10553328;28;20379;-81
2022/05/19 10:38:28;;;;;;;5.13;2.70;;;;;;;;;;10558855;28;20036;-79
2022/05/19 10:43:40;;;;;;;3.78;2.42;;;;;;;;;;10553053;28;20052;-80
2022/05/19 10:48:47;;;;;;;4.60;2.58;;;;;;;;;;10542286;28;20483;-75
2022/05/19 10:53:59;;;;;;;3.25;2.08;;;;;;;;;;10552087;28;20166;-79
2022/05/19 10:59:12;;;;;;;4.38;2.38;;;;;;;;;;10542336;28;20058;-79
2022/05/19 11:04:24;;;;;;;3.83;2.45;;;;;;;;;;10549757;28;20061;-80
2022/05/19 11:09:35;;;;;;;2.28;2.05;;;;;;;;;;10547792;28;20047;-79
2022/05/19 11:14:38;;;;;;;3.33;2.22;;;;;;;;;;10552233;28;20040;-79
2022/05/19 11:19:44;;;;;;;2.67;2.22;;;;;;;;;;10569960;28;20070;-79
2022/05/19 11:30:21;;;;;;;2.65;2.13;;;;;;;;;;10552738;28;20043;-79
2022/05/19 11:35:23;;;;;;;2.53;2.20;;;;;;;;;;10509152;28;20101;-79
2022/05/19 11:40:26;;;;;;;2.00;1.83;;;;;;;;;;10525727;28;20059;-80
2022/05/19 11:45:37;;;;;;;2.97;2.22;;;;;;;;;;10551994;28;20032;-79
2022/05/19 11:55:57;;;;;;;2.55;2.35;;;;;;;;;;10555613;28;20470;-79
2022/05/19 12:01:12;;;;;;;2.27;2.07;;;;;;;;;;10537340;28;20056;-79
2022/05/19 12:06:13;;;;;;;2.97;2.30;;;;;;;;;;10515162;28;20047;-80
2022/05/19 12:11:16;;;;;;;3.83;2.30;;;;;;;;;;10540315;28;20036;-78
2022/05/19 12:16:38;;;;;;;2.65;2.13;;;;;;;;;;10528941;28;20625;-71
2022/05/19 12:21:51;;;;;;;3.25;2.30;;;;;;;;;;10539911;28;20078;-72
2022/05/19 12:26:52;;;;;;;3.63;2.10;;;;;;;;;;10521819;28;20541;-71
2022/05/19 12:31:59;;;;;;;3.13;2.20;;;;;;;;;;10540513;28;20089;-72
2022/05/19 12:37:08;;;;;;;6.00;2.15;;;;;;;;;;10540090;28;20139;-72
2022/05/19 12:42:21;;;;;;;3.83;2.08;;;;;;;;;;10538703;28;20040;-72
2022/05/19 12:47:23;;;;;;;4.15;2.42;;;;;;;;;;10538487;28;20031;-72
2022/05/19 12:52:25;;;;;;;3.40;2.08;;;;;;;;;;10537926;28;20117;-72
2022/05/19 12:57:27;;;;;;;3.97;2.00;;;;;;;;;;10503528;28;20035;-72
2022/05/19 13:02:32;;;;;;;3.30;2.00;;;;;;;;;;10519566;28;20042;-72
2022/05/19 13:07:38;;;;;;;3.13;2.10;;;;;;;;;;10518662;28;20116;-72
2022/05/19 13:13:00;;;;;;;6.13;2.80;;;;;;;;;;10490903;28;20117;-72
2022/05/19 13:18:10;;;;;;;3.50;2.00;;;;;;;;;;10520385;28;20036;-73
2022/05/19 13:23:22;;;;;;;4.32;2.50;;;;;;;;;;10538626;28;20089;-73
2022/05/19 13:33:43;;;;;;;2.30;2.10;;;;;;;;;;10537999;28;20059;-77
2022/05/19 13:38:45;;;;;;;1.92;1.73;;;;;;;;;;10538746;28;20386;-77
2022/05/19 13:43:48;;;;;;;2.13;1.93;;;;;;;;;;10502429;28;20044;-76
2022/05/19 13:48:57;;;;;;;3.22;2.53;;;;;;;;;;10537961;28;20047;-76
2022/05/19 13:53:59;;;;;;;2.88;2.50;;;;;;;;;;10538203;28;20093;-76
2022/05/19 13:59:00;;;;;;;2.58;2.28;;;;;;;;;;10512665;28;20036;-75
2022/05/19 14:04:00;;;;;;;;;;;;;;;;;;10539079;28;20040;-76
2022/05/19 14:09:01;;;;;;;3.60;2.70;;;;;;;;;;10538435;28;19908;-76
2022/05/19 14:14:02;;;;;;;2.70;2.50;;;;;;;;;;10523746;28;20137;-75
2022/05/19 14:19:17;;;;;;;2.95;2.75;;;;;;;;;;10544894;28;20032;-75
2022/05/19 14:24:17;;;;;;;3.13;2.88;;;;;;;;;;10549212;28;20056;-75
2022/05/19 14:29:22;;;;;;;3.20;2.37;;;;;;;;;;10510600;28;20123;-74
2022/05/19 14:34:35;;;;;;;2.45;2.15;;;;;;;;;;10532360;28;22740;-74
2022/05/19 14:39:39;;;;;;;3.05;2.17;;;;;;;;;;10528332;28;20375;-75
2022/05/19 14:44:44;;;;;;;3.88;3.47;;;;;;;;;;10549432;28;20067;-74
2022/05/19 14:49:59;;;;;;;2.85;2.20;;;;;;;;;;10531216;28;20343;-75
2022/05/19 14:55:01;;;;;;;6.32;2.65;;;;;;;;;;10550199;28;20064;-75
2022/05/19 15:00:03;;;;;;;3.60;2.35;;;;;;;;;;10542570;28;20116;-75
2022/05/19 15:05:03;;;;;;;2.20;1.95;;;;;;;;;;10542506;28;20066;-74
2022/05/19 15:10:04;;;;;;;2.73;2.33;;;;;;;;;;10543581;28;20043;-75
2022/05/19 15:15:05;;;;;;;;;;;;;;;;;;10523986;28;20048;-74
2022/05/19 15:20:06;;;;;;;2.53;2.10;;;;;;;;;;10541496;28;20255;-75
2022/05/19 15:25:06;;;;;;;;;;;;;;;;;;10513313;28;20102;-75
2022/05/19 15:30:08;;;;;;;2.30;2.10;;;;;;;;;;10540842;28;19908;-75
2022/05/19 15:35:10;;;;;;;4.60;2.80;;;;;;;;;;10510609;28;20032;-76
2022/05/19 15:40:13;;;;;;;4.70;3.53;;;;;;;;;;10512928;28;20038;-76
2022/05/19 15:45:14;;;;;;;3.25;2.40;;;;;;;;;;10522446;28;20036;-75
2022/05/19 15:50:16;;;;;;;3.78;2.40;;;;;;;;;;10541468;28;20055;-76
2022/05/19 15:55:16;;;;;;;3.45;3.15;;;;;;;;;;10541761;28;20052;-76
2022/05/19 16:00:17;;;;;;;4.67;2.83;;;;;;;;;;10542084;28;20036;-75
2022/05/19 16:05:20;;;;;;;3.33;3.03;;;;;;;;;;10541536;28;20062;-76
2022/05/19 16:10:22;;;;;;;3.55;2.70;;;;;;;;;;10540204;28;20058;-75
2022/05/19 16:15:24;;;;;;;3.17;2.65;;;;;;;;;;10522307;28;20063;-76
2022/05/19 16:20:25;;;;;;;3.65;3.05;;;;;;;;;;10522232;28;20405;-75
2022/05/19 16:25:29;;;;;;;8.32;6.97;;;;;;;;;;10524130;28;20077;-76
2022/05/19 16:30:30;;;;;;;4.47;3.40;;;;;;;;;;10526043;28;20038;-77
2022/05/19 16:35:34;;;;;;;4.15;3.33;;;;;;;;;;10495283;28;20427;-76
2022/05/19 16:40:34;;;;;;;3.63;3.08;;;;;;;;;;10527390;28;20028;-76
2022/05/19 16:45:35;;;;;;;3.22;2.92;;;;;;;;;;10544346;28;20522;-75
2022/05/19 16:50:36;;;;;;;3.87;3.47;;;;;;;;;;10543820;28;20068;-75
2022/05/19 17:01:17;;;;;;;4.38;3.60;;;;;;;;;;10410398;28;19993;-76
2022/05/19 17:06:17;;;;;;;3.50;3.20;;;;;;;;;;10509961;28;20166;-77
2022/05/19 17:11:18;;;;;;;5.37;3.67;;;;;;;;;;10521936;28;20524;-75
2022/05/19 17:16:19;;;;;;;4.83;4.17;;;;;;;;;;10539049;28;20293;-75
2022/05/19 17:21:22;;;;;;;4.25;3.85;;;;;;;;;;10505122;28;20119;-75
2022/05/19 17:26:23;;;;;;;3.95;3.30;;;;;;;;;;10538710;28;20039;-75
2022/05/19 17:31:23;;;;;;;4.33;3.73;;;;;;;;;;10538062;28;20032;-74
2022/05/19 17:36:24;;;;;;;7.00;5.40;;;;;;;;;;10521591;28;20126;-75
2022/05/19 17:41:24;;;;;;;5.60;4.60;;;;;;;;;;10520441;28;20032;-76
2022/05/19 17:46:25;;;;;;;7.37;6.63;;;;;;;;;;10539289;28;20055;-75
2022/05/19 17:51:25;;;;;;;6.93;5.90;;;;;;;;;;10490480;28;20115;-75
2022/05/19 17:56:27;;;;;;;6.63;5.57;;;;;;;;;;10524209;28;20165;-74
2022/05/19 18:01:28;;;;;;;6.78;5.55;;;;;;;;;;10538058;28;20046;-75
2022/05/19 18:06:33;;;;;;;5.13;4.53;;;;;;;;;;10520552;28;20028;-78
2022/05/19 18:11:33;;;;;;;5.43;4.93;;;;;;;;;;10545175;28;20030;-77
2022/05/19 18:21:53;;;;;;;7.60;5.70;;;;;;;;;;10539183;28;20036;-79
2022/05/19 18:26:53;;;;;;;8.90;6.50;;;;;;;;;;10538249;28;20044;-79
2022/05/19 18:31:53;;;;;;;9.37;6.60;;;;;;;;;;10561675;28;20112;-77
2022/05/19 18:49:28;;;;;;;7.32;5.90;;;;;;;;;;10563837;28;20024;-83
2022/05/19 18:54:28;;;;;;;6.87;4.30;;;;;;;;;;10533357;28;20044;-81
2022/05/19 18:59:44;;;;;;;21.70;5.00;;;;;;;;;;10541048;28;20103;-85
2022/05/19 19:04:46;;;;;;;11.50;3.80;;;;;;;;;;10563710;28;20040;-82
2022/05/19 19:09:48;;;;;;;9.07;2.97;;;;;;;;;;10523243;28;20460;-82
2022/05/19 19:14:48;;;;;;;6.38;3.33;;;;;;;;;;10562183;28;20055;-79
2022/05/19 19:19:50;;;;;;;13.93;4.97;;;;;;;;;;10541214;28;20066;-79
2022/05/19 19:24:50;;;;;;;8.57;4.20;;;;;;;;;;10556237;28;20054;-79
2022/05/19 19:29:53;;;;;;;9.93;4.10;;;;;;;;;;10543108;28;20040;-80
2022/05/19 19:34:54;;;;;;;6.93;3.50;;;;;;;;;;10569336;28;20278;-79
2022/05/19 19:39:56;;;;;;;5.78;3.28;;;;;;;;;;10558289;28;20036;-79
2022/05/19 19:44:56;;;;;;;5.22;3.17;;;;;;;;;;10564201;28;20040;-80
2022/05/19 19:55:16;;;;;;;7.07;3.70;;;;;;;;;;10567550;28;20271;-83
2022/05/19 20:00:18;;;;;;;7.00;3.85;;;;;;;;;;10532560;28;20032;-79
2022/05/19 20:05:19;;;;;;;7.38;3.83;;;;;;;;;;10512511;28;20115;-80
2022/05/19 20:10:19;;;;;;;8.32;4.20;;;;;;;;;;10553545;28;20121;-82
2022/05/19 20:15:20;;;;;;;5.80;3.60;;;;;;;;;;10548702;28;20408;-80
2022/05/19 20:20:20;;;;;;;11.98;8.20;;;;;;;;;;10546866;28;20467;-80
2022/05/19 20:25:21;;;;;;;8.32;4.72;;;;;;;;;;10541831;28;20093;-78
2022/05/19 20:30:22;;;;;;;8.07;4.30;;;;;;;;;;10521385;28;20441;-79
2022/05/19 20:35:23;;;;;;;7.28;3.67;;;;;;;;;;10532409;28;20067;-80
2022/05/19 20:40:23;;;;;;;6.70;4.50;;;;;;;;;;10526054;28;20044;-80
2022/05/19 20:45:24;;;;;;;6.93;4.90;;;;;;;;;;10532847;28;20424;-79
2022/05/19 20:50:25;;;;;;;5.27;4.23;;;;;;;;;;10531133;28;20115;-77
2022/05/19 20:55:25;;;;;;;8.82;5.63;;;;;;;;;;10540171;28;20293;-78
2022/05/19 21:00:25;;;;;;;6.95;4.47;;;;;;;;;;10526799;28;20036;-77
2022/05/19 21:05:26;;;;;;;7.27;4.40;;;;;;;;;;10569626;28;20036;-77
2022/05/19 21:10:27;;;;;;;5.82;4.13;;;;;;;;;;10539759;28;20269;-79
2022/05/19 21:15:28;;;;;;;6.18;4.07;;;;;;;;;;10545406;28;20074;-79
2022/05/19 21:20:28;;;;;;;8.15;4.78;;;;;;;;;;10544505;28;20034;-80
2022/05/19 21:30:49;;;;;;;7.60;4.22;;;;;;;;;;10565692;28;20096;-78
2022/05/19 21:35:49;;;;;;;7.10;4.40;;;;;;;;;;10555767;28;20060;-79
2022/05/19 21:40:50;;;;;;;5.30;4.60;;;;;;;;;;10542198;28;20142;-79
2022/05/19 21:45:52;;;;;;;7.13;4.53;;;;;;;;;;10545160;28;20051;-79
2022/05/19 21:56:11;;;;;;;6.30;4.13;;;;;;;;;;10536948;28;20048;-77
2022/05/19 22:01:12;;;;;;;6.33;4.47;;;;;;;;;;10523379;28;20212;-78
2022/05/19 22:11:31;;;;;;;6.43;4.70;;;;;;;;;;10538784;28;20028;-77
2022/05/19 22:16:32;;;;;;;5.63;4.50;;;;;;;;;;10518210;28;20040;-79
2022/05/19 22:21:32;;;;;;;7.90;4.70;;;;;;;;;;10508506;28;20024;-77
2022/05/19 22:26:34;;;;;;;6.07;4.90;;;;;;;;;;10522169;28;20041;-78
2022/05/19 22:31:34;;;;;;;8.30;6.00;;;;;;;;;;10523019;28;20029;-78
2022/05/19 22:36:34;;;;;;;10.20;5.97;;;;;;;;;;10517577;28;20118;-77
2022/05/19 22:41:35;;;;;;;10.10;6.13;;;;;;;;;;10541921;28;20128;-77
2022/05/19 22:46:35;;;;;;;7.80;5.63;;;;;;;;;;10544718;28;20086;-77
2022/05/19 22:51:36;;;;;;;11.32;7.00;;;;;;;;;;10526699;28;20036;-77
2022/05/19 22:56:36;;;;;;;13.30;6.83;;;;;;;;;;10544046;28;20028;-78
2022/05/19 23:01:37;;;;;;;10.73;7.23;;;;;;;;;;10544238;28;20048;-78
2022/05/19 23:06:37;;;;;;;9.40;6.95;;;;;;;;;;10544581;28;20024;-78
2022/05/19 23:11:38;;;;;;;8.18;6.35;;;;;;;;;;10543047;28;20387;-77
2022/05/19 23:16:38;;;;;;;9.67;6.97;;;;;;;;;;10530327;28;20040;-76
2022/05/19 23:21:40;;;;;;;13.67;7.77;;;;;;;;;;10544161;28;20165;-76
2022/05/19 23:26:40;;;;;;;10.80;8.23;;;;;;;;;;10528950;28;20931;-76
2022/05/19 23:31:41;;;;;;;13.68;9.50;;;;;;;;;;10560271;28;20043;-78
2022/05/19 23:36:41;;;;;;;9.38;7.03;;;;;;;;;;10543891;28;20047;-79
2022/05/19 23:41:41;;;;;;;12.23;8.30;;;;;;;;;;10545462;28;20179;-78
2022/05/19 23:46:42;;;;;;;8.10;7.20;;;;;;;;;;10554406;28;20055;-77
2022/05/19 23:51:42;;;;;;;9.85;6.53;;;;;;;;;;10568389;28;20297;-78
2022/05/19 23:56:42;;;;;;;10.73;8.33;;;;;;;;;;10545252;28;20048;-76
